Time;durP1;ratioP1;P1;durP2;ratioP2;P2;SDS_P1;SDS_P2;PMS_P1;PMS_P2;Temp;Humidity;BMP_temperature;BMP_pressure;BME280_temperature;BME280_humidity;BME280_pressure;Samples;Min_cycle;Max_cycle;Signal;HPM_P1;HPM_P2
2023/09/28 00:00:46;;;;;;;;;;;13.90;99.90;;;;;;7593780;19;19921;-80
2023/09/28 00:03:18;;;;;;;;;;;13.90;99.90;;;;;;7597601;19;19919;-82
2023/09/28 00:05:50;;;;;;;;;;;13.80;99.90;;;;;;7603503;19;19918;-82
2023/09/28 00:08:23;;;;;;;;;;;13.90;99.90;;;;;;7596333;19;19929;-80
2023/09/28 00:10:55;;;;;;;;;;;14.10;99.90;;;;;;7598363;19;19929;-81
2023/09/28 00:13:27;;;;;;;;;;;14.10;99.90;;;;;;7591345;19;19918;-81
2023/09/28 00:16:00;;;;;;;;;;;14.10;99.90;;;;;;7599734;19;19919;-81
2023/09/28 00:18:33;;;;;;;;;;;14.10;99.90;;;;;;7603384;19;19923;-83
2023/09/28 00:21:06;;;;;;;;;;;14.10;99.90;;;;;;7600003;19;20911;-81
2023/09/28 00:23:38;;;;;;;;;;;14.10;99.90;;;;;;7598234;19;19918;-80
2023/09/28 00:26:12;;;;;;;;;;;14.00;99.90;;;;;;7592583;19;19915;-81
2023/09/28 00:28:46;;;;;;;;;;;14.00;99.90;;;;;;7603681;19;20015;-82
2023/09/28 00:31:19;;;;;;;;;;;14.00;99.90;;;;;;7597779;19;19955;-83
2023/09/28 00:33:52;;;;;;;;;;;14.00;99.90;;;;;;7598305;19;20253;-81
2023/09/28 00:36:25;;;;;;;;;;;14.00;99.90;;;;;;7595109;19;21337;-82
2023/09/28 00:38:57;;;;;;;;;;;13.90;99.90;;;;;;7597234;19;19948;-80
2023/09/28 00:41:29;;;;;;;;;;;13.80;99.90;;;;;;7599814;19;19961;-82
2023/09/28 00:44:01;;;;;;;;;;;13.80;99.90;;;;;;7604234;19;20815;-83
2023/09/28 00:46:33;;;;;;;;;;;13.70;99.90;;;;;;7610103;19;19923;-80
2023/09/28 00:49:06;;;;;;;;;;;13.80;99.90;;;;;;7608930;19;19918;-81
2023/09/28 00:51:39;;;;;;;;;;;13.90;99.90;;;;;;7613085;19;19919;-83
2023/09/28 00:54:11;;;;;;;;;;;13.70;99.90;;;;;;7605344;19;20540;-82
2023/09/28 00:56:44;;;;;;;;;;;13.70;99.90;;;;;;7606919;19;19922;-80
2023/09/28 00:59:18;;;;;;;;;;;13.70;99.90;;;;;;7614579;19;19978;-80
2023/09/28 01:01:51;;;;;;;;;;;13.60;99.90;;;;;;7609415;19;21246;-81
2023/09/28 01:04:23;;;;;;;;;;;13.50;99.90;;;;;;7611350;19;19918;-81
2023/09/28 01:06:56;;;;;;;;;;;13.40;99.90;;;;;;7609705;19;19926;-81
2023/09/28 01:09:29;;;;;;;;;;;13.40;99.90;;;;;;7610669;19;19910;-82
2023/09/28 01:12:04;;;;;;;;;;;13.40;99.90;;;;;;7611253;19;19935;-81
2023/09/28 01:14:36;;;;;;;;;;;13.30;99.90;;;;;;7616539;19;19966;-80
2023/09/28 01:17:09;;;;;;;;;;;13.30;99.90;;;;;;7611637;19;19930;-82
2023/09/28 01:19:41;;;;;;;;;;;13.40;99.90;;;;;;7617883;19;19935;-81
2023/09/28 01:22:14;;;;;;;;;;;13.60;99.90;;;;;;7617583;19;19942;-81
2023/09/28 01:24:47;;;;;;;;;;;13.40;99.90;;;;;;7617954;19;19922;-82
2023/09/28 01:27:20;;;;;;;;;;;13.30;99.90;;;;;;7627214;19;19951;-82
2023/09/28 01:29:53;;;;;;;;;;;13.20;99.90;;;;;;7620779;19;19932;-81
2023/09/28 01:32:25;;;;;;;;;;;13.20;99.90;;;;;;7620522;19;19919;-80
2023/09/28 01:34:57;;;;;;;;;;;13.20;99.90;;;;;;7624894;19;19923;-80
2023/09/28 01:37:34;;;;;;;;;;;13.20;99.90;;;;;;7628410;19;19926;-81
2023/09/28 01:40:08;;;;;;;;;;;13.20;99.90;;;;;;7646000;19;19922;-79
2023/09/28 01:42:40;;;;;;;;;;;13.20;99.90;;;;;;7647870;19;19922;-80
2023/09/28 01:45:12;;;;;;;;;;;13.30;99.90;;;;;;7468359;19;2880042;-74
2023/09/28 01:47:44;;;;;;;;;;;13.30;99.90;;;;;;7604534;19;19932;-74
2023/09/28 01:50:16;;;;;;;;;;;13.40;99.90;;;;;;7597401;19;19931;-72
2023/09/28 01:52:50;;;;;;;;;;;13.30;99.90;;;;;;7592334;19;20362;-72
2023/09/28 01:55:23;;;;;;;;;;;13.30;99.90;;;;;;7590329;19;21448;-73
2023/09/28 01:57:55;;;;;;;;;;;13.30;99.90;;;;;;7600860;19;20089;-72
2023/09/28 02:00:27;;;;;;;;;;;13.40;99.90;;;;;;7591849;19;20490;-72
2023/09/28 02:03:08;;;;;;;;;;;13.40;99.90;;;;;;7590805;19;19927;-74
2023/09/28 02:05:41;;;;;;;;;;;13.60;99.90;;;;;;7588141;19;19961;-74
2023/09/28 02:08:13;;;;;;;;;;;13.60;99.90;;;;;;7589714;19;19946;-75
2023/09/28 02:10:46;;;;;;;;;;;13.50;99.90;;;;;;7591058;19;19926;-74
2023/09/28 02:13:18;;;;;;;;;;;13.60;99.90;;;;;;7581079;19;21540;-74
2023/09/28 02:15:51;;;;;;;;;;;13.60;99.90;;;;;;7591230;19;20972;-74
2023/09/28 02:18:23;;;;;;;;;;;13.70;99.90;;;;;;7591833;19;20328;-74
2023/09/28 02:20:55;;;;;;;;;;;13.60;99.90;;;;;;7582595;19;20009;-72
2023/09/28 02:23:28;;;;;;;;;;;13.60;99.90;;;;;;7587139;19;19922;-73
2023/09/28 02:26:06;;;;;;;;;;;13.70;99.90;;;;;;7581637;19;20424;-73
2023/09/28 02:28:38;;;;;;;;;;;13.60;99.90;;;;;;7591168;19;19974;-72
2023/09/28 02:31:10;;;;;;;;;;;13.70;99.90;;;;;;7576752;19;19921;-75
2023/09/28 02:33:43;;;;;;;;;;;13.70;99.90;;;;;;7582624;19;20250;-75
2023/09/28 02:36:15;;;;;;;;;;;13.70;99.90;;;;;;7564975;19;19978;-72
2023/09/28 02:38:48;;;;;;;;;;;13.70;99.90;;;;;;7603205;19;19915;-73
2023/09/28 02:41:20;;;;;;;;;;;13.70;99.90;;;;;;7586790;19;19927;-73
2023/09/28 02:43:52;;;;;;;;;;;13.80;99.90;;;;;;7591841;19;19922;-73
2023/09/28 02:46:26;;;;;;;;;;;13.70;99.90;;;;;;7560596;19;19911;-73
2023/09/28 02:48:58;;;;;;;;;;;13.80;99.90;;;;;;7573026;19;21078;-73
2023/09/28 02:51:31;;;;;;;;;;;13.80;99.90;;;;;;7567815;19;21115;-75
2023/09/28 02:54:03;;;;;;;;;;;13.80;99.90;;;;;;7591804;19;19926;-75
2023/09/28 02:56:36;;;;;;;;;;;13.80;99.90;;;;;;7589195;19;19926;-75
2023/09/28 02:59:09;;;;;;;;;;;13.80;99.90;;;;;;7596203;19;19918;-75
2023/09/28 03:01:41;;;;;;;;;;;13.80;99.90;;;;;;7593485;19;19922;-75
2023/09/28 03:04:15;;;;;;;;;;;13.80;99.90;;;;;;7583423;19;20032;-73
2023/09/28 03:06:48;;;;;;;;;;;13.80;99.90;;;;;;7592196;19;19994;-73
2023/09/28 03:09:21;;;;;;;;;;;13.80;99.90;;;;;;7590615;19;20296;-73
2023/09/28 03:11:54;;;;;;;;;;;13.70;99.90;;;;;;7597716;19;19921;-73
2023/09/28 03:14:26;;;;;;;;;;;13.70;99.90;;;;;;7584235;19;19925;-74
2023/09/28 03:16:59;;;;;;;;;;;13.70;99.90;;;;;;7599448;19;19982;-73
2023/09/28 03:19:31;;;;;;;;;;;13.70;99.90;;;;;;7590865;19;20502;-73
2023/09/28 03:22:04;;;;;;;;;;;13.70;99.90;;;;;;7588917;19;19919;-73
2023/09/28 03:24:36;;;;;;;;;;;13.80;99.90;;;;;;7584696;19;20035;-72
2023/09/28 03:27:08;;;;;;;;;;;13.80;99.90;;;;;;7596290;19;19911;-72
2023/09/28 03:29:42;;;;;;;;;;;13.80;99.90;;;;;;7596859;19;19935;-72
2023/09/28 03:32:15;;;;;;;;;;;13.70;99.90;;;;;;7587655;19;21186;-73
2023/09/28 03:34:47;;;;;;;;;;;13.80;99.90;;;;;;7599249;19;20373;-73
2023/09/28 03:37:19;;;;;;;;;;;13.80;99.90;;;;;;7598811;19;20427;-75
2023/09/28 03:39:51;;;;;;;;;;;13.80;99.90;;;;;;7602938;19;19947;-74
2023/09/28 03:42:23;;;;;;;;;;;13.80;99.90;;;;;;7582850;19;19922;-74
2023/09/28 03:44:55;;;;;;;;;;;13.80;99.90;;;;;;7602659;19;20024;-75
2023/09/28 03:47:28;;;;;;;;;;;13.70;99.90;;;;;;7579547;19;19911;-75
2023/09/28 03:50:00;;;;;;;;;;;13.60;99.90;;;;;;7588106;19;19915;-74
2023/09/28 03:52:34;;;;;;;;;;;13.50;99.90;;;;;;7584505;19;19921;-74
2023/09/28 03:55:10;;;;;;;;;;;13.50;99.90;;;;;;7597938;19;21047;-74
2023/09/28 03:57:42;;;;;;;;;;;13.60;99.90;;;;;;7595338;19;19939;-74
2023/09/28 04:00:16;;;;;;;;;;;13.60;99.90;;;;;;7598694;19;19953;-74
2023/09/28 04:02:49;;;;;;;;;;;13.60;99.90;;;;;;7598702;19;19918;-73
2023/09/28 04:05:25;;;;;;;;;;;13.70;99.90;;;;;;7588271;19;20009;-74
2023/09/28 04:07:58;;;;;;;;;;;13.60;99.90;;;;;;7601531;19;19915;-73
2023/09/28 04:10:31;;;;;;;;;;;13.60;99.90;;;;;;7586936;19;19965;-73
2023/09/28 04:13:04;;;;;;;;;;;13.60;99.90;;;;;;7591866;19;19919;-72
2023/09/28 04:15:36;;;;;;;;;;;13.60;99.90;;;;;;7585037;19;19922;-73
2023/09/28 04:18:08;;;;;;;;;;;13.50;99.90;;;;;;7593950;19;19975;-73
2023/09/28 04:20:41;;;;;;;;;;;13.50;99.90;;;;;;7600059;19;20820;-72
2023/09/28 04:23:13;;;;;;;;;;;13.60;99.90;;;;;;7594226;19;19922;-72
2023/09/28 04:25:46;;;;;;;;;;;13.50;99.90;;;;;;7584078;19;19923;-75
2023/09/28 04:28:18;;;;;;;;;;;13.50;99.90;;;;;;7595785;19;19952;-75
2023/09/28 04:30:51;;;;;;;;;;;13.50;99.90;;;;;;7599441;19;19926;-72
2023/09/28 04:33:24;;;;;;;;;;;13.50;99.90;;;;;;7594501;19;19929;-75
2023/09/28 04:35:56;;;;;;;;;;;13.50;99.90;;;;;;7584039;19;19941;-75
2023/09/28 04:38:29;;;;;;;;;;;13.50;99.90;;;;;;7588586;19;19937;-72
2023/09/28 04:41:01;;;;;;;;;;;13.50;99.90;;;;;;7589263;19;19918;-75
2023/09/28 04:43:33;;;;;;;;;;;13.50;99.90;;;;;;7581289;19;20904;-72
2023/09/28 04:46:05;;;;;;;;;;;13.40;99.90;;;;;;7583644;19;20348;-73
2023/09/28 04:48:38;;;;;;;;;;;13.50;99.90;;;;;;7595459;19;19927;-74
2023/09/28 04:51:10;;;;;;;;;;;13.50;99.90;;;;;;7592588;19;19914;-74
2023/09/28 04:53:43;;;;;;;;;;;13.40;99.90;;;;;;7585867;19;19914;-74
2023/09/28 04:56:15;;;;;;;;;;;13.40;99.90;;;;;;7576715;19;20877;-73
2023/09/28 04:58:48;;;;;;;;;;;13.40;99.90;;;;;;7577253;19;20209;-74
2023/09/28 05:01:21;;;;;;;;;;;13.30;99.90;;;;;;7586032;19;20015;-75
2023/09/28 05:03:53;;;;;;;;;;;13.40;99.90;;;;;;7567552;19;19930;-72
2023/09/28 05:06:27;;;;;;;;;;;13.40;99.90;;;;;;7558204;19;20365;-73
2023/09/28 05:09:00;;;;;;;;;;;13.30;99.90;;;;;;7581039;19;19929;-74
2023/09/28 05:11:32;;;;;;;;;;;13.30;99.90;;;;;;7576700;19;19918;-73
2023/09/28 05:14:04;;;;;;;;;;;13.30;99.90;;;;;;7587013;19;20057;-73
2023/09/28 05:16:36;;;;;;;;;;;13.20;99.90;;;;;;7573021;19;19933;-74
2023/09/28 05:19:09;;;;;;;;;;;13.20;99.90;;;;;;7589193;19;20609;-73
2023/09/28 05:21:41;;;;;;;;;;;13.20;99.90;;;;;;7593438;19;20410;-74
2023/09/28 05:24:13;;;;;;;;;;;13.30;99.90;;;;;;7598576;19;19951;-74
2023/09/28 05:26:45;;;;;;;;;;;13.30;99.90;;;;;;7582316;19;20460;-74
2023/09/28 05:29:17;;;;;;;;;;;13.30;99.90;;;;;;7596860;19;19923;-73
2023/09/28 05:31:49;;;;;;;;;;;13.30;99.90;;;;;;7603727;19;19925;-73
2023/09/28 05:34:22;;;;;;;;;;;13.30;99.90;;;;;;7591143;19;19947;-73
2023/09/28 05:36:54;;;;;;;;;;;13.30;99.90;;;;;;7585871;19;19914;-73
2023/09/28 05:39:27;;;;;;;;;;;13.20;99.90;;;;;;7589005;19;19923;-73
2023/09/28 05:42:01;;;;;;;;;;;13.10;99.90;;;;;;7598532;19;20885;-73
2023/09/28 05:44:33;;;;;;;;;;;13.30;99.90;;;;;;7600097;19;19918;-73
2023/09/28 05:47:06;;;;;;;;;;;13.40;99.90;;;;;;7613955;19;19937;-74
2023/09/28 05:49:38;;;;;;;;;;;13.40;99.90;;;;;;7610145;19;19922;-73
2023/09/28 05:52:11;;;;;;;;;;;13.30;99.90;;;;;;7603931;19;20307;-73
2023/09/28 05:54:43;;;;;;;;;;;13.30;99.90;;;;;;7604959;19;19919;-73
2023/09/28 05:57:15;;;;;;;;;;;13.40;99.90;;;;;;7609177;19;20258;-73
2023/09/28 05:59:48;;;;;;;;;;;13.40;99.90;;;;;;7608258;19;19922;-73
2023/09/28 06:02:20;;;;;;;;;;;13.40;99.90;;;;;;7605733;19;20714;-73
2023/09/28 06:04:55;;;;;;;;;;;13.40;99.90;;;;;;7606629;19;19926;-73
2023/09/28 06:07:28;;;;;;;;;;;13.60;99.90;;;;;;7604967;19;21268;-73
2023/09/28 06:10:00;;;;;;;;;;;13.70;99.90;;;;;;7609598;19;21107;-74
2023/09/28 06:12:32;;;;;;;;;;;13.90;99.90;;;;;;7605487;19;19926;-73
2023/09/28 06:15:05;;;;;;;;;;;13.90;99.90;;;;;;7613111;19;20543;-73
2023/09/28 06:17:39;;;;;;;;;;;14.10;99.90;;;;;;7612223;19;19918;-73
2023/09/28 06:20:11;;;;;;;;;;;14.10;99.90;;;;;;7624730;19;19926;-72
2023/09/28 06:22:44;;;;;;;;;;;14.10;99.90;;;;;;7619013;19;19922;-72
2023/09/28 06:25:16;;;;;;;;;;;14.20;99.90;;;;;;7618749;19;19918;-71
2023/09/28 06:27:48;;;;;;;;;;;14.20;99.90;;;;;;7624374;19;20487;-74
2023/09/28 06:30:20;;;;;;;;;;;14.30;99.90;;;;;;7621230;19;19925;-74
2023/09/28 06:32:52;;;;;;;;;;;14.40;99.90;;;;;;7621993;19;19926;-74
2023/09/28 06:35:25;;;;;;;;;;;14.50;99.90;;;;;;7616794;19;20461;-74
2023/09/28 06:37:58;;;;;;;;;;;14.60;99.90;;;;;;7622943;19;19930;-74
2023/09/28 06:40:30;;;;;;;;;;;14.70;99.90;;;;;;7611508;19;19943;-73
2023/09/28 06:43:02;;;;;;;;;;;14.90;99.90;;;;;;7614783;19;19938;-72
2023/09/28 06:45:34;;;;;;;;;;;14.90;99.90;;;;;;7608837;19;20401;-75
2023/09/28 06:48:07;;;;;;;;;;;15.00;99.90;;;;;;7615362;19;19922;-75
2023/09/28 06:50:51;;;;;;;;;;;15.10;99.90;;;;;;7613869;19;19922;-72
2023/09/28 06:53:24;;;;;;;;;;;15.20;99.90;;;;;;7616360;19;19936;-72
2023/09/28 06:55:59;;;;;;;;;;;15.30;99.90;;;;;;7609784;19;19915;-73
2023/09/28 06:58:44;;;;;;;;;;;15.40;99.90;;;;;;7608372;19;19974;-72
2023/09/28 07:01:16;;;;;;;;;;;15.50;99.90;;;;;;7612415;19;19926;-71
2023/09/28 07:03:52;;;;;;;;;;;15.60;99.90;;;;;;7607454;19;19934;-73
2023/09/28 07:06:25;;;;;;;;;;;15.70;99.90;;;;;;7611046;19;19915;-72
2023/09/28 07:08:57;;;;;;;;;;;15.80;99.90;;;;;;7610199;19;19941;-73
2023/09/28 07:11:29;;;;;;;;;;;15.90;99.90;;;;;;7608984;19;19915;-73
2023/09/28 07:14:02;;;;;;;;;;;16.00;99.90;;;;;;7608380;19;19922;-74
2023/09/28 07:16:36;;;;;;;;;;;16.00;99.90;;;;;;7607638;19;19967;-73
2023/09/28 07:19:09;;;;;;;;;;;16.10;99.90;;;;;;7610359;19;20935;-72
2023/09/28 07:21:42;;;;;;;;;;;16.20;99.90;;;;;;7600676;19;19959;-73
2023/09/28 07:24:14;;;;;;;;;;;16.30;99.90;;;;;;7608080;19;19927;-73
2023/09/28 07:26:51;;;;;;;;;;;16.50;99.90;;;;;;7605705;19;19927;-73
2023/09/28 07:29:23;;;;;;;;;;;16.80;99.90;;;;;;7610928;19;20011;-73
2023/09/28 07:31:55;;;;;;;;;;;17.00;99.90;;;;;;7599053;19;19930;-72
2023/09/28 07:34:27;;;;;;;;;;;17.10;99.90;;;;;;7606032;19;19922;-72
2023/09/28 07:36:59;;;;;;;;;;;17.10;99.90;;;;;;7607655;19;19953;-73
2023/09/28 07:39:31;;;;;;;;;;;17.10;99.90;;;;;;7609575;19;19919;-72
2023/09/28 07:42:07;;;;;;;;;;;17.10;99.90;;;;;;7605155;19;21151;-73
2023/09/28 07:44:40;;;;;;;;;;;17.10;99.90;;;;;;7603245;19;20285;-74
2023/09/28 07:47:13;;;;;;;;;;;17.20;99.90;;;;;;7609823;19;20935;-73
2023/09/28 07:49:46;;;;;;;;;;;17.30;99.90;;;;;;7605047;19;20558;-75
2023/09/28 07:52:18;;;;;;;;;;;17.50;99.90;;;;;;7602649;19;19918;-75
2023/09/28 07:54:50;;;;;;;;;;;17.70;99.90;;;;;;7596461;19;19923;-75
2023/09/28 07:57:23;;;;;;;;;;;17.90;99.90;;;;;;7599639;19;20455;-74
2023/09/28 07:59:55;;;;;;;;;;;18.10;99.90;;;;;;7595610;19;21035;-75
2023/09/28 08:02:27;;;;;;;;;;;18.20;99.90;;;;;;7596430;19;19937;-75
2023/09/28 08:05:01;;;;;;;;;;;18.40;99.90;;;;;;7599125;19;20288;-74
2023/09/28 08:07:34;;;;;;;;;;;18.50;99.90;;;;;;7588796;19;19933;-76
2023/09/28 08:10:09;;;;;;;;;;;18.60;99.90;;;;;;7588307;19;19953;-77
2023/09/28 08:12:43;;;;;;;;;;;18.70;99.90;;;;;;7596558;19;20928;-75
2023/09/28 08:15:16;;;;;;;;;;;18.90;99.90;;;;;;7599864;19;19923;-75
2023/09/28 08:18:08;;;;;;;;;;;18.90;99.90;;;;;;7594908;19;21253;-74
2023/09/28 08:20:40;;;;;;;;;;;19.00;99.90;;;;;;7599723;19;19953;-75
2023/09/28 08:23:26;;;;;;;;;;;19.10;99.90;;;;;;7604150;19;20395;-74
2023/09/28 08:25:59;;;;;;;;;;;19.10;99.90;;;;;;7596065;19;20858;-75
2023/09/28 08:28:32;;;;;;;;;;;19.20;99.90;;;;;;7602265;19;19930;-74
2023/09/28 08:31:04;;;;;;;;;;;19.30;99.90;;;;;;7598868;19;19925;-75
2023/09/28 08:33:37;;;;;;;;;;;19.30;99.90;;;;;;7602626;19;19990;-76
2023/09/28 08:36:09;;;;;;;;;;;19.40;99.90;;;;;;7595507;19;21126;-75
2023/09/28 08:38:42;;;;;;;;;;;19.50;99.90;;;;;;7596683;19;19922;-74
2023/09/28 08:41:16;;;;;;;;;;;19.60;99.90;;;;;;7598083;19;21196;-74
2023/09/28 08:43:52;;;;;;;;;;;19.70;99.90;;;;;;7593319;19;19926;-74
2023/09/28 08:46:27;;;;;;;;;;;19.70;99.90;;;;;;7601206;19;20526;-74
2023/09/28 08:49:17;;;;;;;;;;;19.80;99.90;;;;;;7599043;19;19929;-75
2023/09/28 08:51:51;;;;;;;;;;;20.00;99.90;;;;;;7599472;19;19977;-75
2023/09/28 08:54:24;;;;;;;;;;;20.00;99.90;;;;;;7600371;19;20404;-75
2023/09/28 08:56:57;;;;;;;;;;;20.10;99.90;;;;;;7597383;19;19958;-75
2023/09/28 08:59:30;;;;;;;;;;;20.30;99.90;;;;;;7598438;19;19949;-75
2023/09/28 09:02:03;;;;;;;;;;;20.30;99.90;;;;;;7600417;19;22833;-74
2023/09/28 09:04:35;;;;;;;;;;;20.30;99.90;;;;;;7586105;19;19998;-75
2023/09/28 09:07:08;;;;;;;;;;;20.20;99.90;;;;;;7597892;19;19918;-77
2023/09/28 09:09:41;;;;;;;;;;;20.10;99.90;;;;;;7605312;19;20312;-74
2023/09/28 09:12:13;;;;;;;;;;;20.20;99.90;;;;;;7603435;19;20527;-74
2023/09/28 09:14:45;;;;;;;;;;;20.20;99.90;;;;;;7605364;19;19947;-74
2023/09/28 09:17:18;;;;;;;;;;;20.20;99.90;;;;;;7600068;19;19923;-75
2023/09/28 09:19:53;;;;;;;;;;;20.10;99.90;;;;;;7604245;19;19922;-75
2023/09/28 09:22:28;;;;;;;;;;;20.20;99.90;;;;;;7605083;19;19922;-75
2023/09/28 09:25:12;;;;;;;;;;;20.30;99.90;;;;;;7595043;19;19921;-75
2023/09/28 09:27:45;;;;;;;;;;;20.40;99.90;;;;;;7603365;19;19915;-75
2023/09/28 09:30:17;;;;;;;;;;;20.50;99.90;;;;;;7605583;19;19982;-75
2023/09/28 09:32:50;;;;;;;;;;;20.50;99.90;;;;;;7607640;19;19926;-75
2023/09/28 09:35:25;;;;;;;;;;;20.60;99.90;;;;;;7603070;19;19919;-75
2023/09/28 09:37:57;;;;;;;;;;;20.60;99.90;;;;;;7603245;19;20329;-75
2023/09/28 09:40:31;;;;;;;;;;;20.60;99.90;;;;;;7604435;19;19949;-75
2023/09/28 09:43:09;;;;;;;;;;;20.70;99.90;;;;;;7602096;19;20332;-75
2023/09/28 09:45:41;;;;;;;;;;;20.80;99.90;;;;;;7602402;19;19945;-75
2023/09/28 09:48:14;;;;;;;;;;;20.90;99.90;;;;;;7605657;19;19922;-75
2023/09/28 09:50:47;;;;;;;;;;;21.00;99.90;;;;;;7606299;19;20479;-75
2023/09/28 09:53:20;;;;;;;;;;;21.00;99.90;;;;;;7602456;19;20272;-75
2023/09/28 09:55:54;;;;;;;;;;;21.00;99.90;;;;;;7600719;19;21006;-76
2023/09/28 09:58:37;;;;;;;;;;;21.10;99.90;;;;;;7605258;19;19910;-75
2023/09/28 10:01:11;;;;;;;;;;;21.10;99.90;;;;;;7602508;19;19957;-75
2023/09/28 10:03:47;;;;;;;;;;;21.20;99.90;;;;;;7606487;19;19922;-75
2023/09/28 10:06:21;;;;;;;;;;;21.20;99.90;;;;;;7605306;19;20484;-75
2023/09/28 10:08:53;;;;;;;;;;;21.40;99.90;;;;;;7605154;19;19970;-75
2023/09/28 10:11:26;;;;;;;;;;;21.40;99.90;;;;;;7605991;19;19918;-75
2023/09/28 10:13:59;;;;;;;;;;;21.60;99.90;;;;;;7603274;19;19918;-75
2023/09/28 10:16:34;;;;;;;;;;;21.60;99.90;;;;;;7601701;19;19926;-75
2023/09/28 10:19:06;;;;;;;;;;;21.70;99.90;;;;;;7606548;19;20427;-75
2023/09/28 10:21:39;;;;;;;;;;;21.70;99.90;;;;;;7606973;19;19919;-75
2023/09/28 10:24:12;;;;;;;;;;;21.80;99.90;;;;;;7602538;19;20848;-75
2023/09/28 10:26:47;;;;;;;;;;;21.90;99.90;;;;;;7611980;19;20344;-76
2023/09/28 10:29:20;;;;;;;;;;;21.90;99.00;;;;;;7608391;19;19918;-76
2023/09/28 10:31:53;;;;;;;;;;;21.90;99.40;;;;;;7603242;19;19923;-75
2023/09/28 10:34:31;;;;;;;;;;;22.00;98.70;;;;;;7606017;19;19926;-77
2023/09/28 10:37:07;;;;;;;;;;;22.00;98.80;;;;;;7597486;19;19919;-76
2023/09/28 10:39:41;;;;;;;;;;;22.10;99.40;;;;;;7603747;19;19918;-76
2023/09/28 10:42:17;;;;;;;;;;;22.30;98.20;;;;;;7604252;19;19922;-76
2023/09/28 10:44:54;;;;;;;;;;;22.20;97.30;;;;;;7600740;19;19929;-76
2023/09/28 10:47:30;;;;;;;;;;;22.30;97.20;;;;;;7603825;19;19951;-76
2023/09/28 10:50:08;;;;;;;;;;;22.40;97.40;;;;;;7599345;19;20010;-76
2023/09/28 10:52:42;;;;;;;;;;;22.60;97.00;;;;;;7606792;19;19918;-77
2023/09/28 10:55:15;;;;;;;;;;;22.70;96.00;;;;;;7601513;19;20008;-76
2023/09/28 10:57:47;;;;;;;;;;;22.70;95.90;;;;;;7600844;19;19949;-76
2023/09/28 11:00:23;;;;;;;;;;;22.60;96.00;;;;;;7605677;19;19925;-76
2023/09/28 11:02:55;;;;;;;;;;;22.60;95.90;;;;;;7603854;19;20017;-76
2023/09/28 11:05:29;;;;;;;;;;;22.60;96.20;;;;;;7609133;19;19911;-76
2023/09/28 11:08:03;;;;;;;;;;;22.60;96.70;;;;;;7603598;19;19922;-76
2023/09/28 11:10:36;;;;;;;;;;;22.70;96.80;;;;;;7606481;19;19933;-75
2023/09/28 11:13:08;;;;;;;;;;;22.80;96.20;;;;;;7602063;19;20613;-75
2023/09/28 11:15:41;;;;;;;;;;;22.90;95.60;;;;;;7607012;19;19922;-75
2023/09/28 11:18:13;;;;;;;;;;;23.10;94.60;;;;;;7602314;19;19927;-76
2023/09/28 11:20:45;;;;;;;;;;;23.20;95.50;;;;;;7609634;19;19929;-76
2023/09/28 11:23:17;;;;;;;;;;;23.80;93.20;;;;;;7600464;19;19990;-75
2023/09/28 11:25:50;;;;;;;;;;;24.30;93.60;;;;;;7597903;19;19915;-75
2023/09/28 11:28:22;;;;;;;;;;;25.10;90.10;;;;;;7579577;19;19978;-75
2023/09/28 11:31:08;;;;;;;;;;;26.10;87.40;;;;;;7597824;19;20044;-75
2023/09/28 11:33:42;;;;;;;;;;;26.90;84.40;;;;;;7599701;19;19914;-75
2023/09/28 11:36:17;;;;;;;;;;;27.70;80.40;;;;;;7595781;19;19918;-75
2023/09/28 11:38:52;;;;;;;;;;;27.90;76.10;;;;;;7603369;19;19918;-76
2023/09/28 11:41:26;;;;;;;;;;;28.80;76.10;;;;;;7595042;19;19923;-75
2023/09/28 11:43:58;;;;;;;;;;;29.40;74.10;;;;;;7596497;19;21442;-75
2023/09/28 11:46:32;;;;;;;;;;;30.10;73.60;;;;;;7600055;19;20035;-75
2023/09/28 11:49:04;;;;;;;;;;;30.40;66.30;;;;;;7595861;19;19919;-75
2023/09/28 11:51:37;;;;;;;;;;;30.40;65.50;;;;;;7589969;19;19934;-75
2023/09/28 11:54:14;;;;;;;;;;;30.00;66.20;;;;;;7592986;19;19911;-73
2023/09/28 11:56:49;;;;;;;;;;;30.20;63.90;;;;;;7598682;19;20382;-76
2023/09/28 11:59:23;;;;;;;;;;;30.40;65.60;;;;;;7589781;19;19994;-76
2023/09/28 12:01:57;;;;;;;;;;;30.30;64.00;;;;;;7595071;19;20734;-76
2023/09/28 12:04:30;;;;;;;;;;;30.10;62.90;;;;;;7593777;19;20676;-77
2023/09/28 12:07:02;;;;;;;;;;;29.90;64.00;;;;;;7591036;19;20575;-77
2023/09/28 12:09:34;;;;;;;;;;;30.00;64.00;;;;;;7594728;19;19919;-77
2023/09/28 12:12:06;;;;;;;;;;;29.80;64.10;;;;;;7588072;19;19927;-76
2023/09/28 12:14:39;;;;;;;;;;;29.90;64.50;;;;;;7594953;19;19915;-76
2023/09/28 12:17:11;;;;;;;;;;;30.30;61.00;;;;;;7592817;19;19952;-77
2023/09/28 12:19:43;;;;;;;;;;;31.30;61.00;;;;;;7596666;19;19942;-77
2023/09/28 12:22:15;;;;;;;;;;;31.50;58.10;;;;;;7591969;19;19926;-76
2023/09/28 12:24:48;;;;;;;;;;;32.40;57.00;;;;;;7577957;19;20733;-75
2023/09/28 12:27:21;;;;;;;;;;;33.20;57.50;;;;;;7584357;19;19922;-75
2023/09/28 12:29:53;;;;;;;;;;;33.30;51.40;;;;;;7585321;19;19922;-75
2023/09/28 12:32:28;;;;;;;;;;;33.40;50.70;;;;;;7597665;19;20337;-75
2023/09/28 12:35:01;;;;;;;;;;;33.70;52.30;;;;;;7600060;19;19922;-75
2023/09/28 12:37:36;;;;;;;;;;;33.40;51.90;;;;;;7606260;19;19926;-75
2023/09/28 12:40:13;;;;;;;;;;;33.90;52.20;;;;;;7595320;19;19918;-76
2023/09/28 12:42:45;;;;;;;;;;;33.80;47.70;;;;;;7601809;19;19922;-75
2023/09/28 12:45:17;;;;;;;;;;;34.00;50.70;;;;;;7594485;19;20265;-74
2023/09/28 12:47:49;;;;;;;;;;;34.40;49.00;;;;;;7598137;19;19961;-75
2023/09/28 12:50:21;;;;;;;;;;;34.70;47.00;;;;;;7596074;19;19922;-75
2023/09/28 12:52:54;;;;;;;;;;;34.20;47.50;;;;;;7603285;19;19926;-75
2023/09/28 12:55:26;;;;;;;;;;;34.40;48.60;;;;;;7593257;19;19943;-75
2023/09/28 12:57:58;;;;;;;;;;;35.10;50.10;;;;;;7605397;19;19926;-75
2023/09/28 13:00:32;;;;;;;;;;;35.50;47.10;;;;;;7599588;19;20242;-75
2023/09/28 13:03:08;;;;;;;;;;;35.40;47.10;;;;;;7602311;19;20440;-75
2023/09/28 13:05:41;;;;;;;;;;;35.60;48.00;;;;;;7591614;19;19986;-75
2023/09/28 13:08:15;;;;;;;;;;;35.10;45.00;;;;;;7602402;19;19954;-75
2023/09/28 13:10:48;;;;;;;;;;;34.40;47.20;;;;;;7602059;19;19922;-75
2023/09/28 13:13:20;;;;;;;;;;;34.50;46.30;;;;;;7577125;19;19949;-75
2023/09/28 13:15:54;;;;;;;;;;;33.90;47.20;;;;;;7592778;19;20049;-75
2023/09/28 13:18:27;;;;;;;;;;;35.00;46.10;;;;;;7585096;19;19930;-75
2023/09/28 13:21:00;;;;;;;;;;;35.70;47.20;;;;;;7583330;19;20768;-75
2023/09/28 13:23:33;;;;;;;;;;;36.20;44.10;;;;;;7595363;19;20945;-76
2023/09/28 13:26:05;;;;;;;;;;;36.60;42.70;;;;;;7601236;19;19919;-75
2023/09/28 13:28:38;;;;;;;;;;;36.20;42.40;;;;;;7590566;19;19930;-75
2023/09/28 13:31:11;;;;;;;;;;;;;;;;;;7598935;19;19925;-75
2023/09/28 13:33:43;;;;;;;;;;;;;;;;;;7601851;19;19926;-75
2023/09/28 13:36:18;;;;;;;;;;;36.50;43.60;;;;;;7592622;19;20552;-75
2023/09/28 13:38:51;;;;;;;;;;;37.00;43.30;;;;;;7599226;19;19918;-75
2023/09/28 13:41:23;;;;;;;;;;;;;;;;;;7591354;19;20289;-75
2023/09/28 13:43:56;;;;;;;;;;;37.40;43.80;;;;;;7598380;19;19955;-75
2023/09/28 13:46:28;;;;;;;;;;;38.10;43.10;;;;;;7586748;19;19934;-75
2023/09/28 13:49:00;;;;;;;;;;;38.30;40.20;;;;;;7592428;19;19911;-75
2023/09/28 13:51:34;;;;;;;;;;;38.50;41.00;;;;;;7591634;19;20477;-75
2023/09/28 13:54:08;;;;;;;;;;;38.40;40.90;;;;;;7586954;19;19925;-75
2023/09/28 13:56:40;;;;;;;;;;;37.60;39.20;;;;;;7566550;19;19949;-77
2023/09/28 13:59:14;;;;;;;;;;;38.00;42.50;;;;;;7592438;19;20364;-77
2023/09/28 14:01:47;;;;;;;;;;;38.10;40.50;;;;;;7599605;19;19927;-77
2023/09/28 14:04:20;;;;;;;;;;;38.10;41.60;;;;;;7591010;19;20328;-76
2023/09/28 14:06:54;;;;;;;;;;;38.70;41.90;;;;;;7592968;19;19950;-76
2023/09/28 14:09:27;;;;;;;;;;;39.20;40.30;;;;;;7599600;19;20016;-77
2023/09/28 14:12:00;;;;;;;;;;;39.70;40.80;;;;;;7605159;19;20026;-77
2023/09/28 14:14:32;;;;;;;;;;;39.90;41.20;;;;;;7597083;19;20343;-77
2023/09/28 14:17:05;;;;;;;;;;;39.60;40.00;;;;;;7603642;19;20539;-77
2023/09/28 14:19:43;;;;;;;;;;;39.10;41.40;;;;;;7606824;19;19930;-76
2023/09/28 14:22:16;;;;;;;;;;;39.40;40.50;;;;;;7592400;19;19918;-76
2023/09/28 14:24:48;;;;;;;;;;;38.90;39.80;;;;;;7596747;19;22404;-76
2023/09/28 14:27:21;;;;;;;;;;;38.30;39.50;;;;;;7601292;19;19955;-76
2023/09/28 14:29:53;;;;;;;;;;;38.80;41.90;;;;;;7603801;19;19922;-76
2023/09/28 14:32:26;;;;;;;;;;;39.10;41.20;;;;;;7604658;19;19918;-76
2023/09/28 14:34:58;;;;;;;;;;;39.50;40.10;;;;;;7598928;19;19994;-76
2023/09/28 14:37:34;;;;;;;;;;;39.30;40.30;;;;;;7583000;19;19925;-76
2023/09/28 14:40:12;;;;;;;;;;;37.50;41.20;;;;;;7605797;19;20773;-76
2023/09/28 14:42:47;;;;;;;;;;;37.60;41.20;;;;;;7603738;19;19918;-76
2023/09/28 14:45:20;;;;;;;;;;;36.40;42.70;;;;;;7602661;19;19923;-76
2023/09/28 14:47:52;;;;;;;;;;;34.70;42.20;;;;;;7601286;19;19918;-77
2023/09/28 14:50:26;;;;;;;;;;;32.80;46.50;;;;;;7604903;19;19950;-76
2023/09/28 14:52:59;;;;;;;;;;;31.20;47.10;;;;;;7607229;19;19938;-76